Flight Track Log - Related Links

Times and Time Zones

All times are in EDT time to prevent confusion due to time zone crossing. See the CSJ915 flight status page for this flight to view local times or setup timezone preferences in your user account.

Time Position Orientation Groundspeed Altitude Reporting Facility
EDT Latitude Longitude Course Direction KTS MPH feet Rate Location/Type
Fri 01:26:56 AM 43.1333 -79.9333 209° Southwest 100 115 1,600  Level Toronto Center
Fri 01:27:56 AM 43.1167 -79.9833 245° Southwest 120 138 2,600 1,000 Climbing Toronto Center
Fri 01:28:56 AM 43.0833 -80.0000 200° South 130 150 3,600 750 Climbing Toronto Center
Fri 01:29:56 AM 43.0500 -80.0167 200° South 150 173 4,100 500 Climbing Toronto Center
Fri 01:30:56 AM 43.0167 -80.0500 216° Southwest 160 184 4,600 550 Climbing Toronto Center
Fri 01:31:00 AM 42.9690 -80.0650 209° Southwest  Level FlightAware Approximate
Fri 01:31:56 AM 42.9667 -80.0833 206° Southwest 160 184 5,200  Level Toronto Center
Fri 01:32:00 AM 42.9207 -80.1012 209° Southwest  Level FlightAware Approximate
Fri 01:32:56 AM 42.9333 -80.1167 216° Southwest 170 196 5,700  Level Toronto Center
Fri 01:33:56 AM 42.8833 -80.1333 194° South 170 196 6,200 568 Climbing Toronto Center
Fri 01:34:31 AM 42.8681 -80.1725 242° Southwest 177 204 6,600 500 Climbing Cleveland Center
Fri 01:36:00 AM 42.8040 -80.1753 207° Southwest  Level FlightAware Approximate
Fri 01:38:56 AM 42.6667 -80.2667 207° Southwest 170 196 8,700  Level Toronto Center
Fri 01:39:31 AM 42.6600 -80.3122 259° West 177 204 8,900 442 Climbing Cleveland Center
Fri 01:40:31 AM 42.6183 -80.3433 209° Southwest 177 204 9,400 500 Climbing Cleveland Center
Fri 01:41:31 AM 42.5767 -80.3661 202° Southwest 172 198 9,900 300 Climbing Cleveland Center
Fri 01:42:31 AM 42.5308 -80.3972 207° Southwest 178 205 10,000 50 Climbing Cleveland Center
Fri 01:43:00 AM 42.4598 -80.4097 207° Southwest  Level FlightAware Approximate
Fri 01:43:31 AM 42.4850 -80.4311 209° Southwest 184 212 10,000  Level Cleveland Center
Fri 01:44:00 AM 42.4105 -80.4429 207° Southwest  Level FlightAware Approximate
Fri 01:44:31 AM 42.4331 -80.4650 206° Southwest 184 212 10,000  Level Cleveland Center
Fri 01:45:31 AM 42.3894 -80.4989 210° Southwest 184 212 10,000  Level Cleveland Center
Fri 01:46:31 AM 42.3394 -80.5269 203° Southwest 184 212 10,000  Level Cleveland Center
Fri 01:47:31 AM 42.2914 -80.5581 206° Southwest 191 220 10,000  Level Cleveland Center
Fri 01:48:31 AM 42.2414 -80.5886 204° Southwest 196 226 10,000  Level Cleveland Center
Fri 01:49:31 AM 42.1975 -80.6197 208° Southwest 196 226 10,000  Level Cleveland Center
Fri 01:50:31 AM 42.1497 -80.6531 207° Southwest 196 226 10,000  Level Cleveland Center
Fri 01:51:31 AM 42.0994 -80.6839 204° Southwest 196 226 10,000  Level Cleveland Center
Fri 01:52:31 AM 42.0536 -80.7147 207° Southwest 196 226 10,000  Level Cleveland Center
Fri 01:53:31 AM 42.0100 -80.7453 208° Southwest 196 226 10,000  Level Cleveland Center
Fri 01:54:31 AM 41.9619 -80.7758 205° Southwest 196 226 10,000 50 Level Cleveland Center
Fri 01:55:31 AM 41.9139 -80.8064 205° Southwest 196 226 10,100 50 Climbing Cleveland Center
Fri 01:56:31 AM 41.8658 -80.8369 205° Southwest 196 226 10,100  Level Cleveland Center
Fri 01:57:31 AM 41.8158 -80.8700 206° Southwest 196 226 10,100  Level Cleveland Center
Fri 01:58:31 AM 41.7697 -80.9006 206° Southwest 191 220 10,100  Level Cleveland Center
Fri 01:59:31 AM 41.7175 -80.9336 205° Southwest 196 226 10,100  Level Cleveland Center
Fri 02:00:31 AM 41.6675 -80.9667 206° Southwest 196 226 10,100  Level Cleveland Center
Fri 02:01:31 AM 41.6194 -80.9969 205° Southwest 196 226 10,100  Level Cleveland Center
Fri 02:02:31 AM 41.5733 -81.0272 206° Southwest 191 220 10,100  Level Cleveland Center
Fri 02:03:31 AM 41.5253 -81.0547 203° Southwest 191 220 10,100  Level Cleveland Center
Fri 02:04:31 AM 41.4836 -81.0847 208° Southwest 185 213 10,100  Level Cleveland Center
Fri 02:05:31 AM 41.4417 -81.1094 204° Southwest 175 201 10,100  Level Cleveland Center
Fri 02:06:31 AM 41.4000 -81.1394 208° Southwest 175 201 10,100  Level Cleveland Center
Fri 02:07:31 AM 41.3622 -81.1614 204° Southwest 175 201 10,100  Level Cleveland Center
Fri 02:08:31 AM 41.3183 -81.1886 205° Southwest 175 201 10,100  Level Cleveland Center
Fri 02:09:31 AM 41.2786 -81.2131 205° Southwest 175 201 10,100  Level Cleveland Center
Fri 02:10:31 AM 41.2389 -81.2403 207° Southwest 175 201 10,100  Level Cleveland Center
Fri 02:11:31 AM 41.1992 -81.2647 205° Southwest 169 194 10,100  Level Cleveland Center
Fri 02:12:31 AM 41.1614 -81.2892 206° Southwest 164 189 10,100  Level Cleveland Center
Fri 02:13:31 AM 41.1197 -81.3136 204° Southwest 154 177 10,100  Level Cleveland Center
Fri 02:14:31 AM 41.0819 -81.3378 206° Southwest 154 177 10,100  Level Cleveland Center
Fri 02:15:31 AM 41.0442 -81.3622 206° Southwest 154 177 10,100  Level Cleveland Center
Fri 02:16:31 AM 41.0044 -81.3839 202° Southwest 154 177 10,100 -100 Level Cleveland Center
Fri 02:17:31 AM 40.9669 -81.4053 203° Southwest 154 177 9,900 -1,750 Descending Cleveland Center
Fri 02:18:31 AM 40.9106 -81.3992 175° South 178 205 6,600 -3,050 Descending Cleveland Center
Fri 02:19:31 AM 40.8625 -81.4122 192° South 195 224 3,800 -2,250 Descending Cleveland Center
Fri 02:20:31 AM 40.8747 -81.4425 298° West 127 146 2,100 -1,000 Descending Cleveland Center
Fri 02:21:31 AM 40.8789 -81.4564 292° West 56 64 1,800 -300 Descending Cleveland Center

Login

Don't have an account? Register now (free) for customized features, flight alerts, and more!